Fruto, California
Current Conditions -  °F | °C
As of 8:50 AM on Thursday 27 Nov 2014 (Local Time) from KCIC Reporting Station
Overcast Overcast  
Wind Chill: 48°   Ceiling: 15000
Heat Index: 48°   Visibility: 25mi
Dew Point: 46°   Wind: 0mph
Humidity: 93%   Direction: NA
Pressure: 30.21"   Gusts: NA
Location:  39.5041°N, 122.217°W
Report Text: KCIC 271650Z 00000KT 25SM BKN150 OVC200 09/08 A3021
Loading
Personal Weather Stations






























Interactive Weather Map New forecast layout! Learn more

10-Day Weather Forecast

Advertisements
Track Severe Weather on mobile